Time;durP1;ratioP1;P1;durP2;ratioP2;P2;SDS_P1;SDS_P2;PMS_P1;PMS_P2;Temp;Humidity;BMP_temperature;BMP_pressure;BME280_temperature;BME280_humidity;BME280_pressure;Samples;Min_cycle;Max_cycle;Signal;HPM_P1;HPM_P2
2023/04/30 00:09:06;;;;;;;7.25;1.35;;;;;;;21.14;46.04;100847.84;20975193;28;20445;-77
2023/04/30 00:19:13;;;;;;;2.97;1.30;;;;;;;21.13;45.70;100848.97;21006560;28;20048;-78
2023/04/30 00:29:14;;;;;;;6.80;1.77;;;;;;;21.17;45.87;100838.94;20985781;28;20090;-77
2023/04/30 00:39:16;;;;;;;8.23;1.73;;;;;;;21.19;45.54;100843.09;20999249;28;20035;-76
2023/04/30 00:49:17;;;;;;;1.60;1.10;;;;;;;21.21;45.59;100829.75;21002112;28;20154;-76
2023/04/30 00:59:21;;;;;;;4.07;1.33;;;;;;;21.10;45.66;100808.63;20995561;28;20040;-77
2023/04/30 01:09:35;;;;;;;3.00;1.20;;;;;;;21.17;45.58;100820.28;20998351;28;20488;-77
2023/04/30 01:19:41;;;;;;;2.60;1.20;;;;;;;21.24;44.97;100826.34;20940800;28;20045;-78
2023/04/30 01:29:43;;;;;;;1.17;1.08;;;;;;;21.27;45.10;100816.63;20914913;28;20041;-77
2023/04/30 01:40:12;;;;;;;1.30;1.20;;;;;;;21.24;44.93;100815.22;20946203;28;20048;-77
2023/04/30 01:50:52;;;;;;;1.07;0.97;;;;;;;21.25;44.85;100807.72;20994803;28;20479;-78
2023/04/30 02:00:56;;;;;;;1.60;1.13;;;;;;;21.23;44.70;100799.66;20933822;28;20070;-78
2023/04/30 02:11:00;;;;;;;5.25;1.50;;;;;;;21.24;44.69;100801.31;21077362;28;20184;-78
2023/04/30 02:21:04;;;;;;;2.42;1.00;;;;;;;20.67;44.60;100688.69;21036744;28;20048;-78
2023/04/30 02:31:09;;;;;;;2.22;1.30;;;;;;;21.33;44.68;100786.84;21077528;28;20044;-76
2023/04/30 02:41:13;;;;;;;1.65;1.13;;;;;;;21.01;44.57;100746.34;21008561;28;20043;-77
2023/04/30 02:51:14;;;;;;;2.20;1.38;;;;;;;21.14;44.44;100754.06;21077042;28;20036;-77
2023/04/30 03:01:19;;;;;;;1.52;1.20;;;;;;;21.19;44.38;100762.38;21027289;28;20102;-77
2023/04/30 03:11:20;;;;;;;1.75;1.23;;;;;;;21.00;44.27;100708.53;21076069;28;20055;-76
2023/04/30 03:21:22;;;;;;;1.90;1.20;;;;;;;20.60;44.61;100638.09;21056845;28;20483;-76
2023/04/30 03:31:23;;;;;;;1.50;1.30;;;;;;;21.16;44.36;100726.78;21048153;28;20051;-77
2023/04/30 03:41:24;;;;;;;3.25;1.30;;;;;;;20.96;44.49;100674.06;21092022;28;20043;-78
2023/04/30 03:51:26;;;;;;;1.50;1.10;;;;;;;21.26;44.22;100706.44;21078566;28;20070;-78
2023/04/30 04:01:28;;;;;;;3.25;1.33;;;;;;;21.24;44.15;100708.66;21054827;28;20035;-75
2023/04/30 04:11:29;;;;;;;1.60;1.50;;;;;;;21.24;44.34;100722.56;21017624;28;20049;-77
2023/04/30 04:21:32;;;;;;;1.92;1.73;;;;;;;21.08;44.57;100690.41;20971787;28;20120;-79
2023/04/30 04:31:34;;;;;;;1.85;1.20;;;;;;;21.20;44.50;100688.91;21001057;28;20032;-79
2023/04/30 04:41:35;;;;;;;2.80;1.92;;;;;;;21.19;44.53;100665.00;20999086;28;20062;-79
2023/04/30 04:51:38;;;;;;;5.47;1.77;;;;;;;21.13;44.70;100613.28;21000524;28;20041;-79
2023/04/30 05:01:40;;;;;;;4.40;1.88;;;;;;;20.46;44.90;100512.78;20972344;28;20032;-79
2023/04/30 05:11:42;;;;;;;2.50;1.60;;;;;;;21.08;44.84;100591.09;20947564;28;20036;-79
2023/04/30 05:21:46;;;;;;;2.05;1.65;;;;;;;21.06;44.73;100604.44;20991939;28;20043;-78
2023/04/30 05:31:47;;;;;;;5.43;1.83;;;;;;;20.94;44.67;100576.19;20977559;28;20545;-78
2023/04/30 05:41:57;;;;;;;2.55;1.80;;;;;;;20.96;44.70;100532.19;21072447;28;20028;-79
2023/04/30 05:52:02;;;;;;;3.00;1.63;;;;;;;21.11;45.09;100571.00;20997561;28;20078;-79
2023/04/30 06:02:03;;;;;;;4.00;1.85;;;;;;;20.85;44.80;100550.06;20994641;28;20037;-78
2023/04/30 06:12:05;;;;;;;2.25;1.70;;;;;;;21.10;44.96;100557.41;20994814;28;20045;-79
2023/04/30 06:22:06;;;;;;;2.97;1.70;;;;;;;21.09;44.63;100520.41;20996600;28;20391;-79
2023/04/30 06:32:08;;;;;;;2.15;1.95;;;;;;;21.02;44.96;100506.81;20995144;28;20033;-78
2023/04/30 06:42:09;;;;;;;2.47;2.22;;;;;;;21.09;44.83;100531.53;20979282;28;20016;-78
2023/04/30 06:52:10;;;;;;;1.90;1.80;;;;;;;21.07;44.93;100514.28;20992409;28;20097;-79
2023/04/30 07:02:24;;;;;;;2.35;1.92;;;;;;;20.98;44.76;100491.84;21016570;28;20028;-78
2023/04/30 07:12:28;;;;;;;2.33;2.03;;;;;;;21.05;45.02;100485.94;20992926;28;20056;-78
2023/04/30 07:22:30;;;;;;;2.38;2.17;;;;;;;20.89;44.88;100476.91;20987920;28;20040;-78
2023/04/30 07:32:33;;;;;;;2.25;1.92;;;;;;;20.95;44.99;100452.66;21018580;28;20099;-78
2023/04/30 07:42:35;;;;;;;2.95;1.80;;;;;;;20.99;45.04;100432.31;20934229;28;20033;-79
2023/04/30 07:52:39;;;;;;;2.28;1.67;;;;;;;20.96;45.26;100415.38;20960384;28;20056;-79
2023/04/30 08:02:42;;;;;;;2.20;1.80;;;;;;;20.84;45.03;100362.09;20925335;28;20033;-78
2023/04/30 08:12:44;;;;;;;2.10;1.65;;;;;;;21.03;44.87;100363.00;20908445;28;20037;-79
2023/04/30 08:22:45;;;;;;;3.25;1.77;;;;;;;20.96;45.00;100346.66;20859182;28;20049;-78
2023/04/30 08:32:48;;;;;;;1.95;1.77;;;;;;;20.91;44.95;100332.00;20883895;28;20037;-78
2023/04/30 08:42:59;;;;;;;2.15;1.83;;;;;;;20.78;45.01;100314.88;20877238;28;20380;-80
2023/04/30 08:53:01;;;;;;;1.95;1.75;;;;;;;20.98;44.98;100351.91;20894859;28;20045;-79
2023/04/30 09:03:03;;;;;;;1.40;1.30;;;;;;;20.98;45.31;100368.59;20876926;28;20041;-79
2023/04/30 09:13:08;;;;;;;1.55;1.45;;;;;;;20.96;45.05;100370.88;20876680;28;20117;-77
2023/04/30 09:23:10;;;;;;;1.95;1.70;;;;;;;20.89;45.20;100349.00;20868702;28;20384;-78
2023/04/30 09:33:11;;;;;;;1.38;1.23;;;;;;;20.84;45.04;100348.19;20896114;28;20403;-77
2023/04/30 09:43:13;;;;;;;1.60;1.50;;;;;;;20.91;45.08;100357.84;20853348;28;20029;-79
2023/04/30 09:53:16;;;;;;;1.70;1.60;;;;;;;20.66;45.74;100306.09;20879805;28;20049;-79
2023/04/30 10:03:20;;;;;;;1.40;1.30;;;;;;;20.88;45.47;100325.06;20997168;28;20356;-78
2023/04/30 10:13:25;;;;;;;1.70;1.60;;;;;;;20.91;45.47;100351.47;21007847;28;20044;-78
2023/04/30 10:23:26;;;;;;;1.85;1.60;;;;;;;20.19;45.62;100202.09;20980306;28;20045;-78
2023/04/30 10:33:49;;;;;;;4.05;1.80;;;;;;;20.85;45.56;100319.25;20945090;28;20091;-77
2023/04/30 10:43:56;;;;;;;1.70;1.60;;;;;;;20.89;45.36;100292.50;20941855;28;20434;-78
2023/04/30 10:53:58;;;;;;;1.88;1.67;;;;;;;20.90;45.22;100272.75;20994253;28;20047;-77
2023/04/30 11:04:09;;;;;;;3.10;1.85;;;;;;;20.89;45.09;100239.66;20975997;28;20025;-78
2023/04/30 11:14:11;;;;;;;2.40;1.80;;;;;;;20.86;45.19;100206.91;20996910;28;20067;-79
2023/04/30 11:24:13;;;;;;;2.58;1.70;;;;;;;20.74;45.42;100152.53;20991482;28;20037;-79
2023/04/30 11:34:19;;;;;;;2.90;2.60;;;;;;;20.85;45.19;100147.69;20958131;28;20040;-78
2023/04/30 11:44:27;;;;;;;2.60;2.40;;;;;;;20.62;45.69;100116.03;20961267;28;20058;-78
2023/04/30 11:54:31;;;;;;;3.90;2.33;;;;;;;20.74;45.64;100135.03;21007361;28;20036;-77
2023/04/30 12:04:33;;;;;;;2.83;2.40;;;;;;;20.67;45.89;100101.25;20973673;28;20044;-77
2023/04/30 12:14:35;;;;;;;6.28;1.95;;;;;;;20.74;45.94;100108.06;21011571;28;20480;-78
2023/04/30 12:24:36;;;;;;;4.63;2.45;;;;;;;20.73;46.18;100103.63;20999693;28;20025;-74
2023/04/30 12:34:38;;;;;;;11.77;2.97;;;;;;;20.77;46.08;100118.59;20972287;28;20045;-75
2023/04/30 12:44:43;;;;;;;5.80;2.63;;;;;;;20.49;45.59;100052.84;20999375;28;20056;-75
2023/04/30 12:54:48;;;;;;;5.50;2.67;;;;;;;20.80;45.58;100103.25;20930092;28;20048;-74
2023/04/30 13:04:52;;;;;;;4.80;2.30;;;;;;;20.56;45.58;100070.78;20989424;28;20387;-73
2023/04/30 13:14:54;;;;;;;4.93;2.72;;;;;;;20.67;45.35;100135.41;20961995;28;20153;-73
2023/04/30 13:24:55;;;;;;;3.83;2.40;;;;;;;20.82;45.09;100112.13;20961816;28;20376;-73
2023/04/30 13:35:02;;;;;;;5.68;2.80;;;;;;;20.82;45.19;100109.34;20977055;28;20071;-73
2023/04/30 13:45:07;;;;;;;6.38;3.05;;;;;;;20.83;44.96;100060.94;20957640;28;20083;-73
2023/04/30 13:55:09;;;;;;;4.78;2.60;;;;;;;20.80;44.97;100017.91;20959324;28;20045;-73
2023/04/30 14:05:10;;;;;;;3.92;2.58;;;;;;;20.84;45.32;99979.16;20975286;28;20365;-73
2023/04/30 14:15:11;;;;;;;5.07;2.28;;;;;;;20.54;45.72;99919.34;20979817;28;20094;-73
2023/04/30 14:25:18;;;;;;;3.00;2.25;;;;;;;20.17;46.02;99848.78;20992339;28;20047;-72
2023/04/30 14:35:20;;;;;;;3.05;2.20;;;;;;;20.79;46.33;99902.22;20992646;28;20040;-73
2023/04/30 14:45:26;;;;;;;4.35;2.10;;;;;;;20.24;46.28;99807.53;20980381;28;20067;-74
2023/04/30 14:55:28;;;;;;;2.47;1.80;;;;;;;20.76;46.37;99888.97;20942037;28;20063;-76
2023/04/30 15:05:38;;;;;;;4.40;2.05;;;;;;;20.62;46.57;99859.44;20889555;28;20037;-74
2023/04/30 15:15:45;;;;;;;7.63;2.30;;;;;;;20.71;46.28;99858.47;20974072;28;20049;-74
2023/04/30 15:25:48;;;;;;;5.55;1.90;;;;;;;20.72;46.42;99837.06;20962540;28;20037;-74
2023/04/30 15:36:04;;;;;;;5.35;2.67;;;;;;;20.58;46.48;99791.72;20988170;28;20377;-73
2023/04/30 15:46:05;;;;;;;4.43;2.10;;;;;;;20.61;46.99;99768.88;21001576;28;20356;-74
2023/04/30 15:56:08;;;;;;;5.43;2.10;;;;;;;20.63;47.11;99739.66;20988132;28;20458;-73
2023/04/30 16:06:10;;;;;;;3.72;2.20;;;;;;;20.74;47.20;99749.41;21011683;28;20498;-73
2023/04/30 16:16:12;;;;;;;7.72;2.13;;;;;;;20.75;47.35;99675.19;20967470;28;20037;-73
2023/04/30 16:26:18;;;;;;;2.05;1.60;;;;;;;20.64;47.41;99616.22;20983780;28;20052;-72
2023/04/30 16:36:20;;;;;;;4.13;1.80;;;;;;;20.71;47.43;99597.16;20944798;28;20381;-73
2023/04/30 16:46:21;;;;;;;4.78;2.08;;;;;;;20.71;47.43;99546.28;20961766;28;21634;-72
2023/04/30 16:56:22;;;;;;;9.38;1.88;;;;;;;20.73;47.35;99528.16;20973510;28;20131;-72
2023/04/30 17:06:24;;;;;;;4.85;1.80;;;;;;;20.55;47.49;99477.16;20999897;28;20032;-72
2023/04/30 17:16:28;;;;;;;3.83;1.52;;;;;;;20.73;48.00;99455.06;20972556;28;20055;-73
2023/04/30 17:26:30;;;;;;;3.22;1.50;;;;;;;20.71;47.90;99423.97;21000636;28;20040;-73
2023/04/30 17:36:31;;;;;;;2.33;1.52;;;;;;;20.72;48.04;99415.34;20982179;28;20060;-73
2023/04/30 17:46:33;;;;;;;4.47;1.60;;;;;;;20.56;47.63;99359.28;21007410;28;20032;-72
2023/04/30 17:56:35;;;;;;;2.17;1.65;;;;;;;20.60;47.83;99294.75;21000751;28;20110;-72
2023/04/30 18:06:36;;;;;;;6.53;1.70;;;;;;;20.62;47.81;99290.53;20999453;28;20032;-72
2023/04/30 18:16:40;;;;;;;2.38;1.40;;;;;;;20.61;47.74;99255.50;20974209;28;20102;-73
2023/04/30 18:26:42;;;;;;;4.55;2.50;;;;;;;20.49;47.49;99227.53;20981483;28;20399;-74
2023/04/30 18:36:46;;;;;;;3.53;1.60;;;;;;;20.68;47.80;99264.22;20984066;28;20470;-75
2023/04/30 18:46:56;;;;;;;4.82;1.58;;;;;;;19.99;47.71;99141.59;20999212;28;20037;-74
2023/04/30 18:56:57;;;;;;;4.00;1.90;;;;;;;20.71;48.05;99213.56;20979694;28;20487;-72
2023/04/30 19:06:58;;;;;;;3.83;1.70;;;;;;;20.34;48.11;99112.03;20997394;28;20024;-73
2023/04/30 19:17:00;;;;;;;4.88;1.70;;;;;;;20.56;48.01;99125.88;20959121;28;20041;-74
2023/04/30 19:27:03;;;;;;;4.65;1.60;;;;;;;20.58;47.95;99085.84;20901294;28;20094;-74
2023/04/30 19:37:04;;;;;;;2.47;1.58;;;;;;;20.71;48.10;99085.72;20930554;28;20399;-73
2023/04/30 19:47:05;;;;;;;4.13;1.40;;;;;;;20.42;48.27;99004.84;20911882;28;20090;-73
2023/04/30 19:57:07;;;;;;;2.25;1.50;;;;;;;20.22;47.81;98934.09;20918989;28;20094;-74
2023/04/30 20:07:08;;;;;;;2.35;1.40;;;;;;;20.69;47.92;99001.81;20926247;28;20102;-72
2023/04/30 20:17:09;;;;;;;1.50;1.30;;;;;;;20.69;48.15;98948.19;21005181;28;20040;-74
2023/04/30 20:27:11;;;;;;;2.90;1.48;;;;;;;20.63;48.30;98900.31;21003747;28;20048;-73
2023/04/30 20:37:12;;;;;;;2.35;1.15;;;;;;;20.62;47.92;98859.78;21010943;28;20036;-72
2023/04/30 20:47:14;;;;;;;3.35;1.30;;;;;;;20.60;47.74;98802.88;20984881;28;20041;-69
2023/04/30 20:57:15;;;;;;;10.90;1.92;;;;;;;20.84;47.73;98788.41;20997816;28;20040;-75
2023/04/30 21:07:17;;;;;;;4.53;1.20;;;;;;;20.82;47.93;98730.38;20977438;28;20029;-76
2023/04/30 21:17:18;;;;;;;5.20;1.58;;;;;;;20.69;48.17;98748.09;20975502;28;20070;-73
2023/04/30 21:27:20;;;;;;;5.28;1.40;;;;;;;20.80;48.42;98711.28;20985704;28;20041;-73
2023/04/30 21:37:22;;;;;;;4.68;1.30;;;;;;;20.56;48.11;98672.13;21006021;28;20090;-79
2023/04/30 21:47:23;;;;;;;3.35;1.45;;;;;;;20.68;48.04;98697.25;20983427;28;20037;-76
2023/04/30 21:57:24;;;;;;;3.35;1.55;;;;;;;20.65;48.02;98675.69;20962716;28;20369;-77
2023/04/30 22:07:32;;;;;;;2.20;1.10;;;;;;;20.63;48.11;98669.66;20971003;28;20044;-75
2023/04/30 22:17:33;;;;;;;3.13;1.30;;;;;;;20.56;47.89;98649.91;20913210;28;20045;-74
2023/04/30 22:27:35;;;;;;;2.53;1.20;;;;;;;20.77;47.97;98656.34;20898249;28;20399;-74
2023/04/30 22:37:39;;;;;;;2.15;1.20;;;;;;;20.69;47.83;98621.06;20899259;28;20029;-71
2023/04/30 22:47:41;;;;;;;5.10;1.50;;;;;;;19.86;47.53;98495.81;20925802;28;20122;-72
2023/04/30 22:57:42;;;;;;;2.90;1.20;;;;;;;20.88;47.80;98644.84;20849329;28;20033;-72
2023/04/30 23:07:47;;;;;;;2.50;1.15;;;;;;;20.90;47.58;98614.75;20825330;28;20057;-73
2023/04/30 23:17:55;;;;;;;1.40;1.00;;;;;;;20.88;47.57;98634.53;20907230;28;20049;-73
2023/04/30 23:27:58;;;;;;;4.30;1.43;;;;;;;20.89;47.46;98635.34;20946713;28;20053;-73
2023/04/30 23:37:59;;;;;;;3.58;1.10;;;;;;;20.88;47.34;98608.69;20951157;28;20036;-72
2023/04/30 23:48:01;;;;;;;3.72;1.20;;;;;;;20.77;47.42;98545.16;21006133;28;20044;-73
2023/04/30 23:58:05;;;;;;;1.85;1.10;;;;;;;20.88;47.32;98555.88;20992860;28;20044;-71
